createdAt,value
2024-05-09T00:00:18.460Z,97718.23
2024-05-09T00:02:44.340Z,97719.47
2024-05-09T00:05:11.951Z,97713.69
2024-05-09T00:07:39.513Z,97718.22
2024-05-09T00:10:11.764Z,97711.08
2024-05-09T00:12:36.602Z,97706.63
2024-05-09T00:15:05.014Z,97704.03
2024-05-09T00:17:32.907Z,97710.62
2024-05-09T00:20:00.703Z,97711.41
2024-05-09T00:22:28.283Z,97703.70
2024-05-09T00:24:55.988Z,97703.89
2024-05-09T00:27:23.386Z,97698.68
2024-05-09T00:29:50.961Z,97701.40
2024-05-09T00:32:18.572Z,97702.06
2024-05-09T00:34:46.168Z,97702.06
2024-05-09T00:37:13.605Z,97698.91
2024-05-09T00:39:50.605Z,97694.35
2024-05-09T00:42:23.885Z,97694.27
2024-05-09T00:44:51.464Z,97690.28
2024-05-09T00:47:19.089Z,97689.80
2024-05-09T00:49:47.815Z,97689.14
2024-05-09T00:52:15.804Z,97691.86
2024-05-09T00:54:43.239Z,97679.72
2024-05-09T00:57:10.703Z,97679.15
2024-05-09T00:59:38.435Z,97673.70
2024-05-09T01:02:06.242Z,97677.34
2024-05-09T01:04:33.770Z,97675.52
2024-05-09T01:07:01.391Z,97672.92
2024-05-09T01:09:32.055Z,97669.38
2024-05-09T01:11:59.691Z,97680.03
2024-05-09T01:14:27.532Z,97678.68
2024-05-09T01:16:54.920Z,97679.94
2024-05-09T01:19:30.428Z,97676.77
2024-05-09T01:21:57.907Z,97685.85
2024-05-09T01:24:25.798Z,97680.75
2024-05-09T01:26:54.043Z,97677.71
2024-05-09T01:29:24.542Z,97683.72
2024-05-09T01:31:53.469Z,97677.15
2024-05-09T01:34:29.519Z,97678.06
2024-05-09T01:37:00.087Z,97666.72
2024-05-09T01:39:33.809Z,97670.34
2024-05-09T01:42:04.126Z,97668.98
2024-05-09T01:44:32.777Z,97671.48
2024-05-09T01:47:01.557Z,97679.76
2024-05-09T01:49:34.346Z,97675.45
2024-05-09T01:52:03.422Z,97676.59
2024-05-09T01:54:31.068Z,97679.20
2024-05-09T01:56:58.603Z,97680.77
2024-05-09T01:59:26.181Z,97683.95
2024-05-09T02:01:56.977Z,97680.32
2024-05-09T02:04:23.769Z,97679.19
2024-05-09T02:06:51.354Z,97680.78
2024-05-09T02:09:19.005Z,97684.97
2024-05-09T02:11:47.906Z,97688.39
2024-05-09T02:14:17.727Z,97683.84
2024-05-09T02:16:45.176Z,97687.12
2024-05-09T02:19:12.845Z,97682.35
2024-05-09T02:21:40.614Z,97685.42
2024-05-09T02:24:08.080Z,97682.02
2024-05-09T02:26:35.752Z,97681.00
2024-05-09T02:29:03.522Z,97683.82
2024-05-09T02:31:31.146Z,97688.25
2024-05-09T02:33:58.751Z,97685.98
2024-05-09T02:36:26.573Z,97689.71
2024-05-09T02:38:53.881Z,97690.95
2024-05-09T02:41:21.415Z,97687.75
2024-05-09T02:43:48.966Z,97683.23
2024-05-09T02:46:16.656Z,97685.83
2024-05-09T02:48:44.191Z,97691.58
2024-05-09T02:51:11.911Z,97685.48
2024-05-09T02:53:39.581Z,97694.74
2024-05-09T02:56:07.295Z,97695.66
2024-05-09T02:58:34.764Z,97692.22
2024-05-09T03:01:02.396Z,97698.80
2024-05-09T03:03:30.357Z,97702.17
2024-05-09T03:05:58.260Z,97709.31
2024-05-09T03:08:27.301Z,97712.13
2024-05-09T03:10:54.880Z,97713.05
2024-05-09T03:13:22.422Z,97709.63
2024-05-09T03:15:49.962Z,97710.77
2024-05-09T03:18:17.828Z,97711.08
2024-05-09T03:20:45.403Z,97716.64
2024-05-09T03:23:13.140Z,97720.71
2024-05-09T03:25:41.046Z,97723.44
2024-05-09T03:28:08.661Z,97718.00
2024-05-09T03:30:41.302Z,97724.36
2024-05-09T03:33:07.669Z,97730.72
2024-05-09T03:35:35.315Z,97728.92
2024-05-09T03:38:03.020Z,97721.91
2024-05-09T03:40:31.186Z,97731.23
2024-05-09T03:42:58.944Z,97731.27
2024-05-09T03:45:26.612Z,97729.59
2024-05-09T03:47:54.210Z,97730.86
2024-05-09T03:50:30.005Z,97731.33
2024-05-09T03:52:51.409Z,97740.06
2024-05-09T03:55:19.191Z,97740.41
2024-05-09T03:57:46.757Z,97740.66
2024-05-09T04:00:18.357Z,97750.41
2024-05-09T04:02:47.326Z,97752.45
2024-05-09T04:05:15.029Z,97752.90
2024-05-09T04:07:43.736Z,97756.77
2024-05-09T04:10:17.361Z,97760.84
2024-05-09T04:12:40.807Z,97764.67
2024-05-09T04:15:11.206Z,97769.20
2024-05-09T04:17:38.659Z,97776.00
2024-05-09T04:20:08.626Z,97775.09
2024-05-09T04:22:36.803Z,97776.89
2024-05-09T04:25:05.144Z,97763.25
2024-05-09T04:27:32.577Z,97743.52
2024-05-09T04:30:00.279Z,97739.17
2024-05-09T04:32:28.002Z,97743.44
2024-05-09T04:34:55.717Z,97749.97
2024-05-09T04:37:24.853Z,97761.94
2024-05-09T04:39:52.506Z,97764.87
2024-05-09T04:42:20.054Z,97770.95
2024-05-09T04:44:47.662Z,97771.61
2024-05-09T04:47:15.583Z,97776.37
2024-05-09T04:49:44.867Z,97778.17
2024-05-09T04:52:12.428Z,97781.31
2024-05-09T04:54:40.028Z,97781.27
2024-05-09T04:57:07.594Z,97783.05
2024-05-09T04:59:35.786Z,97784.61
2024-05-09T05:02:03.772Z,97784.95
2024-05-09T05:04:31.698Z,97792.28
2024-05-09T05:07:02.547Z,97799.49
2024-05-09T05:09:28.716Z,97795.77
2024-05-09T05:11:56.311Z,97806.48
2024-05-09T05:14:23.930Z,97803.77
2024-05-09T05:16:51.519Z,97807.39
2024-05-09T05:19:19.264Z,97811.47
2024-05-09T05:21:46.592Z,97808.49
2024-05-09T05:24:14.182Z,97807.25
2024-05-09T05:26:41.769Z,97811.41
2024-05-09T05:29:10.228Z,97806.95
2024-05-09T05:31:38.002Z,97813.52
2024-05-09T05:34:05.773Z,97821.33
2024-05-09T05:36:33.283Z,97826.56
2024-05-09T05:39:01.222Z,97823.43
2024-05-09T05:41:28.996Z,97821.56
2024-05-09T05:43:56.582Z,97819.70
2024-05-09T05:46:24.215Z,97823.80
2024-05-09T05:48:52.391Z,97815.71
2024-05-09T05:51:20.159Z,97819.58
2024-05-09T05:53:47.686Z,97813.72
2024-05-09T05:56:15.227Z,97808.73
2024-05-09T05:58:42.865Z,97809.66
2024-05-09T06:01:10.476Z,97814.93
2024-05-09T06:03:38.807Z,97815.61
2024-05-09T06:06:07.039Z,97818.01
2024-05-09T06:08:34.553Z,97819.03
2024-05-09T06:11:02.794Z,97820.95
2024-05-09T06:13:30.429Z,97813.14
2024-05-09T06:15:59.793Z,97807.56
2024-05-09T06:18:27.588Z,97802.42
2024-05-09T06:20:55.172Z,97809.42
2024-05-09T06:23:22.923Z,97808.01
2024-05-09T06:25:50.964Z,97814.78
2024-05-09T06:28:18.483Z,97827.88
2024-05-09T06:30:46.269Z,97836.45
2024-05-09T06:33:15.823Z,97830.09
2024-05-09T06:35:43.984Z,97829.16
2024-05-09T06:38:12.400Z,97828.22
2024-05-09T06:40:43.611Z,97836.78
2024-05-09T06:43:17.167Z,97831.69
2024-05-09T06:45:45.288Z,97839.05
2024-05-09T06:48:13.262Z,97830.98
2024-05-09T06:50:41.482Z,97839.92
2024-05-09T06:53:09.364Z,97838.56
2024-05-09T06:55:38.010Z,97838.34
2024-05-09T06:58:06.704Z,97842.41
2024-05-09T07:00:39.373Z,97839.21
2024-05-09T07:03:09.272Z,97841.92
2024-05-09T07:05:37.575Z,97841.13
2024-05-09T07:08:06.361Z,97843.05
2024-05-09T07:10:36.179Z,97842.03
2024-05-09T07:13:12.041Z,97845.31
2024-05-09T07:15:40.615Z,97846.67
2024-05-09T07:18:13.052Z,97846.91
2024-05-09T07:20:41.464Z,97841.47
2024-05-09T07:23:09.935Z,97848.03
2024-05-09T07:25:39.036Z,97850.33
2024-05-09T07:28:13.026Z,97851.02
2024-05-09T07:30:40.618Z,97853.08
2024-05-09T07:33:08.315Z,97843.16
2024-05-09T07:35:36.199Z,97854.88
2024-05-09T07:38:04.283Z,97850.95
2024-05-09T07:40:36.091Z,97846.45
2024-05-09T07:43:03.477Z,97856.70
2024-05-09T07:45:47.978Z,97853.70
2024-05-09T07:55:29.394Z,97868.96
2024-05-09T07:57:57.123Z,97870.41
2024-05-09T08:00:31.030Z,97867.70
2024-05-09T08:02:54.148Z,97869.98
2024-05-09T08:05:21.893Z,97873.19
2024-05-09T08:07:49.953Z,97877.02
2024-05-09T08:10:22.138Z,97878.15
2024-05-09T08:12:46.670Z,97880.98
2024-05-09T08:15:14.023Z,97880.51
2024-05-09T08:17:41.499Z,97875.41
2024-05-09T08:20:09.859Z,97878.22
2024-05-09T08:22:38.862Z,97883.52
2024-05-09T08:25:06.883Z,97885.05
2024-05-09T08:27:36.257Z,97887.07
2024-05-09T08:30:04.899Z,97890.70
2024-05-09T08:32:34.498Z,97890.33
2024-05-09T08:35:02.233Z,97892.23
2024-05-09T08:37:34.929Z,97896.42
2024-05-09T08:39:59.516Z,97897.87
2024-05-09T08:42:28.946Z,97895.34
2024-05-09T08:44:56.682Z,97900.07
2024-05-09T08:47:25.015Z,97902.34
2024-05-09T08:49:55.372Z,97903.22
2024-05-09T08:52:22.866Z,97907.41
2024-05-09T08:54:50.401Z,97908.36
2024-05-09T08:57:19.014Z,97906.33
2024-05-09T08:59:51.141Z,97913.53
2024-05-09T09:02:19.476Z,97912.17
2024-05-09T09:04:59.774Z,97908.19
2024-05-09T09:07:28.485Z,97906.80
2024-05-09T09:09:56.131Z,97908.94
2024-05-09T09:12:23.618Z,97906.53
2024-05-09T09:14:51.191Z,97907.89
2024-05-09T09:17:19.120Z,97915.25
2024-05-09T09:19:46.917Z,97919.33
2024-05-09T09:22:14.637Z,97919.33
2024-05-09T09:24:42.463Z,97919.33
2024-05-09T09:27:14.760Z,97911.40
2024-05-09T09:29:42.478Z,97914.61
2024-05-09T09:32:11.169Z,97914.38
2024-05-09T09:34:38.593Z,97913.25
2024-05-09T09:37:08.100Z,97910.45
2024-05-09T09:39:37.187Z,97918.48
2024-05-09T09:42:05.644Z,97916.00
2024-05-09T09:44:34.213Z,97921.69
2024-05-09T09:47:02.582Z,97915.46
2024-05-09T09:49:32.269Z,97918.97
2024-05-09T09:52:01.723Z,97918.63
2024-05-09T09:54:29.528Z,97915.72
2024-05-09T09:56:58.139Z,97907.30
2024-05-09T09:59:25.743Z,97910.30
2024-05-09T10:01:53.735Z,97907.86
2024-05-09T10:04:21.602Z,97909.05
2024-05-09T10:06:52.827Z,97913.01
2024-05-09T10:09:20.974Z,97914.55
2024-05-09T10:11:52.080Z,97909.50
2024-05-09T10:14:21.658Z,97915.79
2024-05-09T10:16:49.480Z,97918.69
2024-05-09T10:19:27.328Z,97919.17
2024-05-09T10:22:02.542Z,97912.61
2024-05-09T10:24:52.436Z,97918.31
2024-05-09T10:27:29.663Z,97910.62
2024-05-09T10:29:58.945Z,97906.75
2024-05-09T10:32:28.285Z,97908.34
2024-05-09T10:35:14.310Z,97909.92
2024-05-09T10:37:41.974Z,97901.66
2024-05-09T10:40:19.913Z,97912.34
2024-05-09T10:42:42.489Z,97917.02
2024-05-09T10:45:09.858Z,97908.16
2024-05-09T10:47:38.109Z,97912.63
2024-05-09T10:50:15.451Z,97918.16
2024-05-09T10:52:35.616Z,97908.09
2024-05-09T10:55:05.799Z,97913.19
2024-05-09T10:57:40.338Z,97916.36
2024-05-09T11:00:15.595Z,97910.59
2024-05-09T11:02:37.860Z,97912.30
2024-05-09T11:05:06.154Z,97916.16
2024-05-09T11:07:33.846Z,97917.05
2024-05-09T11:10:01.710Z,97920.44
2024-05-09T11:12:29.473Z,97919.30
2024-05-09T11:14:56.910Z,97920.66
2024-05-09T11:17:24.386Z,97925.86
2024-05-09T11:19:52.203Z,97924.97
2024-05-09T11:22:20.934Z,97921.77
2024-05-09T11:24:48.630Z,97908.98
2024-05-09T11:27:16.232Z,97909.08
2024-05-09T11:29:45.697Z,97907.74
2024-05-09T11:32:15.203Z,97907.98
2024-05-09T11:34:43.019Z,97905.27
2024-05-09T11:37:12.443Z,97905.02
2024-05-09T11:39:40.077Z,97904.82
2024-05-09T11:42:07.716Z,97902.31
2024-05-09T11:44:35.440Z,97893.97
2024-05-09T11:47:03.950Z,97900.98
2024-05-09T11:49:31.465Z,97893.73
2024-05-09T11:51:59.210Z,97896.13
2024-05-09T11:54:26.731Z,97894.31
2024-05-09T11:56:54.257Z,97893.52
2024-05-09T11:59:21.764Z,97889.31
2024-05-09T12:01:49.565Z,97890.01
2024-05-09T12:04:17.415Z,97895.11
2024-05-09T12:06:45.880Z,97888.64
2024-05-09T12:09:13.723Z,97882.37
2024-05-09T12:11:41.155Z,97874.66
2024-05-09T12:14:08.787Z,97870.33
2024-05-09T12:16:36.653Z,97867.48
2024-05-09T12:19:04.606Z,97858.73
2024-05-09T12:21:32.153Z,97855.77
2024-05-09T12:23:59.515Z,97860.65
2024-05-09T12:26:27.847Z,97860.52
2024-05-09T12:28:55.391Z,97851.97
2024-05-09T12:31:22.971Z,97846.38
2024-05-09T12:33:50.688Z,97847.59
2024-05-09T12:36:18.323Z,97842.67
2024-05-09T12:38:46.014Z,97828.80
2024-05-09T12:41:13.520Z,97836.04
2024-05-09T12:43:41.157Z,97831.02
2024-05-09T12:46:08.633Z,97826.21
2024-05-09T12:48:36.444Z,97825.20
2024-05-09T12:51:05.308Z,97831.24
2024-05-09T12:53:32.898Z,97833.75
2024-05-09T12:56:02.931Z,97826.93
2024-05-09T12:58:30.292Z,97830.19
2024-05-09T13:00:58.093Z,97831.08
2024-05-09T13:03:26.418Z,97827.98
2024-05-09T13:05:54.202Z,97827.77
2024-05-09T13:08:21.976Z,97827.67
2024-05-09T13:10:49.777Z,97835.13
2024-05-09T13:13:17.433Z,97832.87
2024-05-09T13:15:45.330Z,97836.96
2024-05-09T13:18:12.881Z,97834.23
2024-05-09T13:20:40.492Z,97829.46
2024-05-09T13:23:08.744Z,97828.53
2024-05-09T13:25:38.000Z,97841.05
2024-05-09T13:28:06.807Z,97835.81
2024-05-09T13:30:39.904Z,97829.46
2024-05-09T13:33:04.786Z,97832.63
2024-05-09T13:35:33.761Z,97825.49
2024-05-09T13:38:01.755Z,97832.64
2024-05-09T13:40:33.805Z,97839.94
2024-05-09T13:42:58.544Z,97835.41
2024-05-09T13:45:26.091Z,97840.19
2024-05-09T13:47:54.264Z,97835.67
2024-05-09T13:50:30.997Z,97839.09
2024-05-09T13:52:51.581Z,97838.08
2024-05-09T13:55:19.038Z,97846.63
2024-05-09T13:57:46.755Z,97846.63
2024-05-09T14:00:27.172Z,97854.92
2024-05-09T14:02:44.883Z,97855.84
2024-05-09T14:05:12.929Z,97861.77
2024-05-09T14:07:41.126Z,97854.59
2024-05-09T14:10:19.452Z,97858.03
2024-05-09T14:12:38.211Z,97861.66
2024-05-09T14:15:05.915Z,97865.64
2024-05-09T14:17:33.717Z,97863.27
2024-05-09T14:20:01.425Z,97864.16
2024-05-09T14:22:29.086Z,97859.64
2024-05-09T14:24:56.605Z,97864.30
2024-05-09T14:27:24.282Z,97862.36
2024-05-09T14:29:51.711Z,97864.88
2024-05-09T14:32:19.093Z,97861.36
2024-05-09T14:34:47.037Z,97861.58
2024-05-09T14:37:14.772Z,97859.99
2024-05-09T14:39:42.381Z,97859.64
2024-05-09T14:42:09.942Z,97852.35
2024-05-09T14:44:37.547Z,97852.60
2024-05-09T14:47:05.285Z,97849.88
2024-05-09T14:49:32.848Z,97853.97
2024-05-09T14:52:00.414Z,97855.98
2024-05-09T14:54:27.978Z,97853.36
2024-05-09T14:56:55.985Z,97854.63
2024-05-09T14:59:23.574Z,97855.41
2024-05-09T15:01:51.245Z,97858.03
2024-05-09T15:04:19.179Z,97859.61
2024-05-09T15:06:48.069Z,97855.30
2024-05-09T15:09:15.765Z,97859.61
2024-05-09T15:11:43.461Z,97852.80
2024-05-09T15:14:10.915Z,97851.43
2024-05-09T15:16:38.866Z,97843.68
2024-05-09T15:19:06.537Z,97844.14
2024-05-09T15:21:34.152Z,97852.77
2024-05-09T15:24:01.845Z,97849.71
2024-05-09T15:26:29.435Z,97843.68
2024-05-09T15:28:57.053Z,97846.41
2024-05-09T15:31:24.618Z,97842.31
2024-05-09T15:33:52.392Z,97846.52
2024-05-09T15:36:20.309Z,97845.30
2024-05-09T15:38:48.054Z,97842.10
2024-05-09T15:41:15.668Z,97851.54
2024-05-09T15:43:43.341Z,97849.39
2024-05-09T15:46:11.230Z,97848.12
2024-05-09T15:48:42.683Z,97842.78
2024-05-09T15:51:08.995Z,97844.72
2024-05-09T15:53:36.514Z,97847.02
2024-05-09T15:56:04.843Z,97845.08
2024-05-09T15:58:32.183Z,97842.34
2024-05-09T16:00:59.754Z,97844.06
2024-05-09T16:03:27.621Z,97843.50
2024-05-09T16:05:56.854Z,97844.72
2024-05-09T16:08:24.345Z,97851.86
2024-05-09T16:10:51.868Z,97847.09
2024-05-09T16:13:20.114Z,97850.00
2024-05-09T16:15:47.999Z,97856.56
2024-05-09T16:18:15.935Z,97858.97
2024-05-09T16:20:45.433Z,97854.63
2024-05-09T16:23:13.085Z,97853.51
2024-05-09T16:25:45.465Z,97849.53
2024-05-09T16:28:13.480Z,97850.20
2024-05-09T16:30:41.789Z,97851.75
2024-05-09T16:33:12.539Z,97854.69
2024-05-09T16:35:40.556Z,97854.03
2024-05-09T16:38:08.388Z,97854.46
2024-05-09T16:40:39.868Z,97856.07
2024-05-09T16:43:06.286Z,97855.03
2024-05-09T16:45:34.441Z,97862.65
2024-05-09T16:48:02.354Z,97862.44
2024-05-09T16:50:33.542Z,97864.95
2024-05-09T16:53:01.438Z,97859.48
2024-05-09T16:55:29.289Z,97851.05
2024-05-09T16:57:57.841Z,97861.73
2024-05-09T17:00:35.792Z,97866.54
2024-05-09T17:02:55.203Z,97864.50
2024-05-09T17:05:23.128Z,97867.13
2024-05-09T17:07:51.092Z,97872.94
2024-05-09T17:10:26.692Z,97866.59
2024-05-09T17:12:48.243Z,97869.35
2024-05-09T17:15:16.837Z,97874.48
2024-05-09T17:17:44.500Z,97876.64
2024-05-09T17:20:22.906Z,97872.57
2024-05-09T17:22:41.671Z,97876.88
2024-05-09T17:25:09.361Z,97879.63
2024-05-09T17:27:36.996Z,97886.69
2024-05-09T17:30:07.963Z,97886.47
2024-05-09T17:32:35.416Z,97891.69
2024-05-09T17:35:03.597Z,97887.84
2024-05-09T17:37:31.291Z,97890.11
2024-05-09T17:39:59.236Z,97897.83
2024-05-09T17:42:26.981Z,97891.00
2024-05-09T17:44:54.560Z,97899.76
2024-05-09T17:47:22.509Z,97898.47
2024-05-09T17:49:50.222Z,97898.23
2024-05-09T17:52:18.209Z,97903.21
2024-05-09T17:54:45.976Z,97902.73
2024-05-09T17:57:13.728Z,97902.48
2024-05-09T17:59:41.198Z,97910.53
2024-05-09T18:02:08.974Z,97903.02
2024-05-09T18:04:36.914Z,97907.98
2024-05-09T18:07:04.784Z,97917.81
2024-05-09T18:09:32.655Z,97917.89
2024-05-09T18:12:01.244Z,97923.07
2024-05-09T18:14:28.854Z,97918.81
2024-05-09T18:16:56.269Z,97928.31
2024-05-09T18:19:23.837Z,97929.41
2024-05-09T18:21:51.762Z,97931.39
2024-05-09T18:24:21.172Z,97933.83
2024-05-09T18:26:49.105Z,97944.96
2024-05-09T18:29:21.718Z,97940.52
2024-05-09T18:31:47.406Z,97940.72
2024-05-09T18:34:14.947Z,97946.80
2024-05-09T18:36:42.916Z,97943.37
2024-05-09T18:39:10.428Z,97959.64
2024-05-09T18:41:38.084Z,97953.08
2024-05-09T18:44:05.821Z,97955.80
2024-05-09T18:46:33.522Z,97957.72
2024-05-09T18:49:00.995Z,97959.64
2024-05-09T18:51:28.572Z,97960.78
2024-05-09T18:53:56.274Z,97960.78
2024-05-09T18:56:23.862Z,97961.20
2024-05-09T18:58:51.536Z,97965.92
2024-05-09T19:01:19.000Z,97969.93
2024-05-09T19:03:47.775Z,97973.55
2024-05-09T19:06:15.576Z,97977.81
2024-05-09T19:08:43.129Z,97978.23
2024-05-09T19:11:10.680Z,97983.59
2024-05-09T19:13:38.406Z,97990.34
2024-05-09T19:16:06.622Z,97985.95
2024-05-09T19:18:34.324Z,97993.48
2024-05-09T19:21:02.160Z,97998.50
2024-05-09T19:23:32.508Z,97999.81
2024-05-09T19:25:59.151Z,97999.98
2024-05-09T19:28:26.686Z,98006.38
2024-05-09T19:30:54.259Z,98020.90
2024-05-09T19:33:21.812Z,98019.72
2024-05-09T19:35:50.204Z,98017.40
2024-05-09T19:38:17.748Z,98015.81
2024-05-09T19:40:45.264Z,98021.24
2024-05-09T19:43:12.859Z,98016.44
2024-05-09T19:45:40.417Z,98018.20
2024-05-09T19:48:08.274Z,98018.38
2024-05-09T19:50:41.989Z,98016.92
2024-05-09T19:53:05.572Z,98024.59
2024-05-09T19:55:33.222Z,98017.64
2024-05-09T19:58:04.759Z,98023.97
2024-05-09T20:00:36.275Z,98020.73
2024-05-09T20:03:03.367Z,98023.27
2024-05-09T20:05:31.456Z,98022.81
2024-05-09T20:07:59.024Z,98020.49
2024-05-09T20:10:31.686Z,98030.61
2024-05-09T20:12:55.903Z,98024.22
2024-05-09T20:15:23.430Z,98029.16
2024-05-09T20:17:51.180Z,98027.66
2024-05-09T20:20:28.292Z,98029.47
2024-05-09T20:22:48.221Z,98033.13
2024-05-09T20:25:16.028Z,98038.55
2024-05-09T20:27:43.921Z,98033.89
2024-05-09T20:30:14.424Z,98038.17
2024-05-09T20:32:41.096Z,98037.50
2024-05-09T20:35:08.821Z,98036.53
2024-05-09T20:37:36.331Z,98033.97
2024-05-09T20:40:07.912Z,98035.47
2024-05-09T20:42:34.358Z,98028.84
2024-05-09T20:45:02.107Z,98031.44
2024-05-09T20:47:29.644Z,98031.81
2024-05-09T20:49:57.508Z,98031.08
2024-05-09T20:52:24.988Z,98032.94
2024-05-09T20:54:52.616Z,98031.52
2024-05-09T20:57:20.205Z,98032.73
2024-05-09T20:59:47.916Z,98035.85
2024-05-09T21:02:15.841Z,98030.29
2024-05-09T21:04:43.904Z,98028.55
2024-05-09T21:07:11.973Z,98035.17
2024-05-09T21:09:39.537Z,98034.32
2024-05-09T21:12:07.327Z,98032.97
2024-05-09T21:14:34.880Z,98034.09
2024-05-09T21:17:02.349Z,98038.62
2024-05-09T21:19:29.949Z,98041.33
2024-05-09T21:21:57.517Z,98045.16
2024-05-09T21:24:25.011Z,98041.25
2024-05-09T21:26:52.500Z,98045.05
2024-05-09T21:29:20.090Z,98041.63
2024-05-09T21:31:47.761Z,98040.16
2024-05-09T21:34:15.550Z,98045.78
2024-05-09T21:36:43.363Z,98043.36
2024-05-09T21:39:11.139Z,98051.81
2024-05-09T21:41:38.490Z,98052.80
2024-05-09T21:44:06.086Z,98058.36
2024-05-09T21:46:33.770Z,98065.23
2024-05-09T21:49:03.052Z,98054.53
2024-05-09T21:51:31.139Z,98058.73
2024-05-09T21:53:58.916Z,98058.06
2024-05-09T21:56:26.571Z,98068.70
2024-05-09T21:58:54.218Z,98070.80
2024-05-09T22:01:22.387Z,98075.43
2024-05-09T22:03:50.050Z,98067.36
2024-05-09T22:06:17.923Z,98075.19
2024-05-09T22:08:45.460Z,98072.53
2024-05-09T22:11:13.085Z,98071.59
2024-05-09T22:13:40.409Z,98076.66
2024-05-09T22:16:08.187Z,98072.69
2024-05-09T22:18:35.938Z,98073.92
2024-05-09T22:21:03.942Z,98081.88
2024-05-09T22:23:31.733Z,98081.56
2024-05-09T22:25:59.522Z,98086.53
2024-05-09T22:28:27.151Z,98081.48
2024-05-09T22:30:54.795Z,98083.20
2024-05-09T22:33:22.595Z,98076.55
2024-05-09T22:35:50.780Z,98089.08
2024-05-09T22:38:18.199Z,98087.52
2024-05-09T22:40:48.848Z,98081.67
2024-05-09T22:43:22.562Z,98086.80
2024-05-09T22:45:50.114Z,98082.02
2024-05-09T22:48:18.283Z,98079.91
2024-05-09T22:50:45.998Z,98076.21
2024-05-09T22:53:13.411Z,98079.02
2024-05-09T22:55:41.153Z,98081.80
2024-05-09T22:58:08.922Z,98079.45
2024-05-09T23:00:36.662Z,98077.38
2024-05-09T23:03:05.413Z,98075.50
2024-05-09T23:05:33.252Z,98080.98
2024-05-09T23:08:01.506Z,98077.17
2024-05-09T23:10:35.433Z,98079.80
2024-05-09T23:12:58.634Z,98071.97
2024-05-09T23:15:26.266Z,98073.31
2024-05-09T23:17:54.635Z,98065.45
2024-05-09T23:20:33.129Z,98061.41
2024-05-09T23:22:51.879Z,98068.95
2024-05-09T23:25:19.568Z,98065.94
2024-05-09T23:27:47.495Z,98075.32
2024-05-09T23:30:25.384Z,98073.06
2024-05-09T23:32:44.841Z,98068.11
2024-05-09T23:35:12.385Z,98059.64
2024-05-09T23:37:39.955Z,98070.86
2024-05-09T23:40:09.780Z,98067.24
2024-05-09T23:42:41.348Z,98072.22
2024-05-09T23:45:09.099Z,98068.32
2024-05-09T23:47:36.805Z,98065.81
2024-05-09T23:50:08.962Z,98070.07
2024-05-09T23:52:35.756Z,98065.22
2024-05-09T23:55:03.766Z,98065.50
2024-05-09T23:57:31.345Z,98065.02
